Time;durP1;ratioP1;P1;durP2;ratioP2;P2;SDS_P1;SDS_P2;PMS_P1;PMS_P2;Temp;Humidity;BMP_temperature;BMP_pressure;BME280_temperature;BME280_humidity;BME280_pressure;Samples;Min_cycle;Max_cycle;Signal;HPM_P1;HPM_P2
2023/10/08 00:02:26;;;;;;;19.00;9.95;;;;;;;;;;5050768;28;20049;-65
2023/10/08 00:04:54;;;;;;;17.30;9.77;;;;;;;;;;5050580;28;20035;-65
2023/10/08 00:07:21;;;;;;;15.80;8.95;;;;;;;;;;5050958;28;20033;-63
2023/10/08 00:09:52;;;;;;;20.80;11.85;;;;;;;;;;5050989;28;20032;-59
2023/10/08 00:12:19;;;;;;;25.02;12.38;;;;;;;;;;5050972;28;20052;-61
2023/10/08 00:14:49;;;;;;;27.55;13.88;;;;;;;;;;5050750;28;20029;-60
2023/10/08 00:17:15;;;;;;;25.23;14.13;;;;;;;;;;5051126;28;20044;-59
2023/10/08 00:19:43;;;;;;;26.75;15.52;;;;;;;;;;5050781;28;20412;-65
2023/10/08 00:22:13;;;;;;;26.88;15.63;;;;;;;;;;5050912;28;20037;-62
2023/10/08 00:24:41;;;;;;;37.45;22.52;;;15.70;98.80;;;;;;5048299;28;20044;-61
2023/10/08 00:27:08;;;;;;;34.15;20.02;;;15.80;98.90;;;;;;5048224;28;20435;-60
2023/10/08 00:29:34;;;;;;;25.75;15.43;;;15.70;98.70;;;;;;5050767;28;20108;-60
2023/10/08 00:32:11;;;;;;;14.93;8.30;;;15.90;99.00;;;;;;5064779;28;20489;-67
2023/10/08 00:34:43;;;;;;;10.50;7.13;;;15.90;99.30;;;;;;5052202;28;20395;-68
2023/10/08 00:37:11;;;;;;;10.98;6.10;;;15.90;98.70;;;;;;5052194;28;20676;-59
2023/10/08 00:39:39;;;;;;;8.90;5.63;;;15.90;98.20;;;;;;5054587;28;20033;-66
2023/10/08 00:42:08;;;;;;;9.77;5.40;;;15.90;98.40;;;;;;5054360;28;20029;-62
2023/10/08 00:44:47;;;;;;;11.55;5.55;;;16.00;98.60;;;;;;5054415;28;20492;-61
2023/10/08 00:47:14;;;;;;;9.40;5.55;;;15.70;98.70;;;;;;5054209;28;20079;-60
2023/10/08 00:57:47;;;;;;;9.60;5.07;;;14.40;99.90;;;;;;5031494;28;20041;-60
2023/10/08 01:00:21;;;;;;;9.00;5.68;;;14.10;99.90;;;;;;5031675;28;20037;-59
2023/10/08 01:02:55;;;;;;;9.20;5.40;;;14.00;99.90;;;;;;5031299;28;20392;-60
2023/10/08 01:08:06;;;;;;;10.10;5.10;;;14.10;99.90;;;;;;5031187;28;20041;-59
2023/10/08 01:10:32;;;;;;;8.75;5.03;;;14.10;99.90;;;;;;5031599;28;20033;-61
2023/10/08 01:15:30;;;;;;;8.60;4.97;;;14.20;99.90;;;;;;5030847;28;20057;-61
2023/10/08 01:18:14;;;;;;;9.00;5.25;;;14.30;99.90;;;;;;5031260;28;20029;-62
2023/10/08 01:23:13;;;;;;;10.68;5.63;;;14.90;99.90;;;;;;5031069;28;20079;-59
2023/10/08 01:25:41;;;;;;;8.75;5.47;;;15.10;99.80;;;;;;5031319;28;20689;-62
2023/10/08 01:28:26;;;;;;;11.15;5.60;;;15.20;99.90;;;;;;5038896;28;20052;-59
2023/10/08 01:31:00;;;;;;;8.30;5.05;;;15.40;99.90;;;;;;5053925;28;20029;-66
2023/10/08 01:33:29;;;;;;;8.00;5.60;;;15.60;99.90;;;;;;5053358;28;20392;-63
2023/10/08 01:36:04;;;;;;;9.00;5.10;;;15.70;99.90;;;;;;5053271;28;20029;-62
2023/10/08 01:38:33;;;;;;;13.00;5.63;;;15.80;99.90;;;;;;5053604;28;20114;-60
2023/10/08 01:41:18;;;;;;;9.18;6.13;;;15.60;99.50;;;;;;5053690;28;20025;-62
2023/10/08 01:43:44;;;;;;;9.40;5.30;;;15.40;99.60;;;;;;5053148;28;20051;-57
2023/10/08 01:46:11;;;;;;;13.20;5.38;;;15.40;99.80;;;;;;5052966;28;20420;-65
2023/10/08 01:48:39;;;;;;;12.68;5.85;;;15.60;99.70;;;;;;5053401;28;20370;-61
2023/10/08 01:51:24;;;;;;;8.80;4.80;;;15.60;99.60;;;;;;5053134;28;20029;-60
2023/10/08 01:53:55;;;;;;;9.07;5.32;;;15.80;99.30;;;;;;5052742;28;20087;-61
2023/10/08 01:56:20;;;;;;;7.75;5.05;;;16.00;99.20;;;;;;5052997;28;20079;-60
2023/10/08 01:58:46;;;;;;;9.45;5.22;;;16.10;99.00;;;;;;5052968;28;20579;-57
2023/10/08 02:01:16;;;;;;;9.52;5.55;;;16.20;98.60;;;;;;5052822;28;20120;-63
2023/10/08 02:03:41;;;;;;;10.35;5.47;;;16.20;98.60;;;;;;5052530;28;20665;-60
2023/10/08 02:06:08;;;;;;;8.55;5.43;;;15.90;98.70;;;;;;5053562;28;20029;-60
2023/10/08 02:08:34;;;;;;;7.63;5.20;;;15.60;99.60;;;;;;5052833;28;20036;-62
2023/10/08 02:11:02;;;;;;;8.15;5.18;;;15.40;99.50;;;;;;5050417;28;20110;-65
2023/10/08 02:13:28;;;;;;;11.30;5.97;;;15.40;99.80;;;;;;5017306;28;20052;-60
2023/10/08 02:15:53;;;;;;;8.52;5.22;;;15.20;99.90;;;;;;5052794;28;20020;-60
2023/10/08 02:18:21;;;;;;;8.95;5.55;;;15.10;99.90;;;;;;5050339;28;20247;-62
2023/10/08 02:20:48;;;;;;;8.50;4.72;;;15.00;99.90;;;;;;5053034;28;20033;-58
2023/10/08 02:23:14;;;;;;;8.57;5.53;;;15.40;99.90;;;;;;5050144;28;20424;-59
2023/10/08 02:25:40;;;;;;;8.50;5.65;;;15.40;99.90;;;;;;5052440;28;20035;-62
2023/10/08 02:28:08;;;;;;;9.95;5.65;;;15.60;99.90;;;;;;5052439;28;20369;-66
2023/10/08 02:30:36;;;;;;;9.52;4.88;;;15.80;99.60;;;;;;5052577;28;20033;-59
2023/10/08 02:33:02;;;;;;;10.55;5.57;;;16.00;99.50;;;;;;5052197;28;20098;-62
2023/10/08 02:35:28;;;;;;;7.53;4.78;;;16.20;99.50;;;;;;5052520;28;20039;-62
2023/10/08 02:37:54;;;;;;;9.88;5.10;;;16.30;99.40;;;;;;5052409;28;20021;-61
2023/10/08 02:40:26;;;;;;;8.63;5.50;;;16.30;99.40;;;;;;5052377;28;20056;-63
2023/10/08 02:43:00;;;;;;;6.90;4.72;;;16.40;99.90;;;;;;5052003;28;20036;-58
2023/10/08 02:45:27;;;;;;;8.70;4.57;;;16.40;99.90;;;;;;5052100;28;20536;-60
2023/10/08 02:47:54;;;;;;;9.57;5.03;;;16.50;99.90;;;;;;5052072;28;20059;-62
2023/10/08 02:50:22;;;;;;;11.10;5.20;;;16.50;99.30;;;;;;5051783;28;20029;-57
2023/10/08 02:52:50;;;;;;;8.27;5.07;;;16.60;99.60;;;;;;5051898;28;20048;-62
2023/10/08 02:55:34;;;;;;;10.48;4.72;;;16.60;98.70;;;;;;5051898;28;20583;-63
2023/10/08 02:58:02;;;;;;;10.00;5.13;;;16.60;98.90;;;;;;5051262;28;20033;-60
2023/10/08 03:00:34;;;;;;;10.50;5.28;;;16.70;99.00;;;;;;5051735;28;20032;-65
2023/10/08 03:03:07;;;;;;;8.45;5.15;;;16.70;98.70;;;;;;5066047;28;20812;-60
2023/10/08 03:05:35;;;;;;;8.90;5.43;;;16.70;98.50;;;;;;5047211;28;20034;-59
2023/10/08 03:08:10;;;;;;;8.30;4.85;;;16.70;98.50;;;;;;5031655;28;20385;-58
2023/10/08 03:10:38;;;;;;;8.60;5.40;;;16.70;98.90;;;;;;5031700;28;20397;-63
2023/10/08 03:13:05;;;;;;;10.50;5.43;;;16.80;99.00;;;;;;5031622;28;20120;-65
2023/10/08 03:15:40;;;;;;;18.35;6.90;;;16.90;99.10;;;;;;5031822;28;20033;-62
2023/10/08 03:18:10;;;;;;;9.52;5.45;;;16.90;99.20;;;;;;5031723;28;20079;-63
2023/10/08 03:20:42;;;;;;;9.35;5.32;;;16.90;99.40;;;;;;5044249;28;20033;-63
2023/10/08 03:23:22;;;;;;;9.13;5.80;;;17.00;99.30;;;;;;5051652;28;20533;-60
2023/10/08 03:25:56;;;;;;;10.13;5.35;;;17.00;99.10;;;;;;5051397;28;20385;-60
2023/10/08 03:28:24;;;;;;;8.27;4.93;;;16.90;99.00;;;;;;5050707;28;20110;-59
2023/10/08 03:30:55;;;;;;;7.90;5.30;;;17.00;99.50;;;;;;5056527;28;20465;-61
2023/10/08 03:33:23;;;;;;;8.60;5.30;;;17.00;99.70;;;;;;5045079;28;20132;-57
2023/10/08 03:35:52;;;;;;;9.88;4.78;;;16.90;99.80;;;;;;5031261;28;20102;-59
2023/10/08 03:38:28;;;;;;;8.95;5.05;;;16.90;99.50;;;;;;5031216;28;20087;-63
2023/10/08 03:40:58;;;;;;;8.40;5.22;;;16.90;99.40;;;;;;5030977;28;20443;-60
2023/10/08 03:43:33;;;;;;;13.50;5.70;;;17.00;99.20;;;;;;5031273;28;20025;-64
2023/10/08 03:46:05;;;;;;;10.00;5.85;;;17.00;99.50;;;;;;5031276;28;20113;-57
2023/10/08 03:48:36;;;;;;;12.90;5.75;;;17.00;99.50;;;;;;5031834;28;20033;-61
2023/10/08 03:51:12;;;;;;;10.77;5.97;;;17.00;99.60;;;;;;5031061;28;20041;-56
2023/10/08 03:53:58;;;;;;;11.30;5.32;;;17.00;99.50;;;;;;5030827;28;20041;-63
2023/10/08 03:56:31;;;;;;;12.50;6.20;;;17.00;99.20;;;;;;5031206;28;20025;-60
2023/10/08 03:59:03;;;;;;;17.08;6.22;;;17.00;99.40;;;;;;5030792;28;20060;-62
2023/10/08 04:01:31;;;;;;;15.10;5.65;;;17.00;99.80;;;;;;5031002;28;20105;-59
2023/10/08 04:03:58;;;;;;;13.57;6.00;;;17.00;99.70;;;;;;5030699;28;20078;-65
2023/10/08 04:06:37;;;;;;;15.55;6.03;;;17.00;99.90;;;;;;5031190;28;20033;-60
2023/10/08 04:12:11;;;;;;;11.95;5.90;;;17.00;99.90;;;;;;5048691;28;20052;-61
2023/10/08 04:14:30;;;;;;;11.30;4.97;;;17.00;99.90;;;;;;5032609;28;20048;-60
2023/10/08 04:16:58;;;;;;;7.55;5.40;;;17.10;99.70;;;;;;5034916;28;20083;-61
2023/10/08 04:19:27;;;;;;;9.85;6.47;;;17.10;99.20;;;;;;5034939;28;20116;-60
2023/10/08 04:21:56;;;;;;;10.40;5.43;;;17.10;99.30;;;;;;5034719;28;20535;-62
2023/10/08 04:24:35;;;;;;;12.15;6.13;;;17.10;99.20;;;;;;5032557;28;20045;-63
2023/10/08 04:27:09;;;;;;;14.48;5.55;;;17.10;99.10;;;;;;5034437;28;20583;-62
2023/10/08 04:29:36;;;;;;;11.07;5.47;;;17.10;99.10;;;;;;5035034;28;20380;-65
2023/10/08 04:32:07;;;;;;;11.05;5.75;;;17.10;99.90;;;;;;5034711;28;20470;-61
2023/10/08 04:34:36;;;;;;;13.40;5.82;;;17.20;99.80;;;;;;5048357;28;20089;-61
2023/10/08 04:37:03;;;;;;;10.00;5.75;;;17.10;99.90;;;;;;5048664;28;20034;-61
2023/10/08 04:39:33;;;;;;;10.73;6.18;;;17.10;99.60;;;;;;5054729;28;20036;-60
2023/10/08 04:42:13;;;;;;;14.40;6.20;;;17.00;99.90;;;;;;5053960;28;20033;-63
2023/10/08 04:44:39;;;;;;;12.13;5.82;;;17.10;99.80;;;;;;5054250;28;20033;-64
2023/10/08 04:47:08;;;;;;;9.95;5.28;;;17.10;99.50;;;;;;5054512;28;20029;-63
2023/10/08 04:49:37;;;;;;;12.93;6.10;;;17.20;99.30;;;;;;5054208;28;20108;-65
2023/10/08 04:52:18;;;;;;;8.80;5.50;;;17.00;98.70;;;;;;5054002;28;20162;-60
2023/10/08 04:54:56;;;;;;;9.73;5.53;;;17.10;99.00;;;;;;5055006;28;20392;-63
2023/10/08 04:57:22;;;;;;;11.38;6.53;;;17.00;98.80;;;;;;5055125;28;20111;-61
2023/10/08 04:59:50;;;;;;;11.95;5.88;;;17.20;98.70;;;;;;5052746;28;20117;-56
2023/10/08 05:02:20;;;;;;;8.95;5.50;;;17.20;98.30;;;;;;5052652;28;20053;-64
2023/10/08 05:15:35;;;;;;;11.32;5.93;;;17.40;97.70;;;;;;5054248;28;20135;-57
2023/10/08 05:23:32;;;;;;;9.20;5.82;;;17.50;98.10;;;;;;5054102;28;20028;-63
2023/10/08 05:26:08;;;;;;;8.95;5.63;;;17.40;97.70;;;;;;5054441;28;20086;-66
2023/10/08 05:28:46;;;;;;;9.43;5.40;;;17.40;98.10;;;;;;5054509;28;20037;-67
2023/10/08 05:34:15;;;;;;;8.55;5.70;;;17.40;98.80;;;;;;5054274;28;20044;-59
2023/10/08 05:36:35;;;;;;;8.35;5.45;;;17.50;98.80;;;;;;5054123;28;20045;-67
2023/10/08 05:39:19;;;;;;;10.65;5.80;;;17.40;98.90;;;;;;5052124;28;20051;-61
2023/10/08 05:42:12;;;;;;;8.88;5.90;;;17.60;99.60;;;;;;5054123;28;20029;-65
2023/10/08 05:44:39;;;;;;;11.75;5.85;;;17.60;99.10;;;;;;5053967;28;20029;-60
2023/10/08 05:50:28;;;;;;;11.15;6.13;;;17.60;99.90;;;;;;5052608;28;20123;-64
2023/10/08 05:52:50;;;;;;;11.13;6.28;;;17.60;99.90;;;;;;5053727;28;20052;-63
2023/10/08 05:55:26;;;;;;;11.10;5.85;;;17.70;99.90;;;;;;5051458;28;20045;-63
2023/10/08 06:00:46;;;;;;;23.17;12.05;;;17.50;99.90;;;;;;5051916;28;20127;-66
2023/10/08 06:03:32;;;;;;;21.55;10.57;;;17.50;99.90;;;;;;5053448;28;20109;-61
2023/10/08 06:06:25;;;;;;;19.17;9.40;;;17.50;99.90;;;;;;5053830;28;20040;-60
2023/10/08 06:08:52;;;;;;;17.35;8.20;;;17.50;99.50;;;;;;5053173;28;20041;-66
2023/10/08 06:14:16;;;;;;;14.63;7.22;;;17.60;99.60;;;;;;5053735;28;20044;-62
2023/10/08 06:16:46;;;;;;;16.15;8.00;;;17.60;99.50;;;;;;5051989;28;20446;-55
2023/10/08 06:19:13;;;;;;;15.27;6.78;;;17.70;99.40;;;;;;5052850;28;20518;-64
2023/10/08 06:21:41;;;;;;;12.70;7.30;;;17.70;99.20;;;;;;5053385;28;20029;-61
2023/10/08 06:24:09;;;;;;;12.68;6.60;;;17.80;99.00;;;;;;5052125;28;20025;-65
2023/10/08 06:26:48;;;;;;;11.60;6.15;;;17.80;98.80;;;;;;5053391;28;20082;-64
2023/10/08 06:29:31;;;;;;;11.20;6.03;;;17.90;98.80;;;;;;5052882;28;20021;-64
2023/10/08 06:32:01;;;;;;;8.98;6.15;;;17.90;98.60;;;;;;5049438;28;20538;-65
2023/10/08 06:34:31;;;;;;;13.07;6.07;;;17.90;98.40;;;;;;5050437;28;20033;-61
2023/10/08 06:36:59;;;;;;;14.90;6.80;;;18.00;98.20;;;;;;5052759;28;20086;-64
2023/10/08 06:39:47;;;;;;;11.38;6.15;;;18.20;98.80;;;;;;5050006;28;20033;-64
2023/10/08 06:42:17;;;;;;;11.95;5.75;;;18.40;98.30;;;;;;5051267;28;20036;-61
2023/10/08 06:44:46;;;;;;;12.63;6.03;;;18.50;98.30;;;;;;5052856;28;20426;-63
2023/10/08 06:47:15;;;;;;;12.82;6.15;;;18.70;98.10;;;;;;5052533;28;20409;-61
2023/10/08 06:49:43;;;;;;;13.18;5.68;;;18.80;98.00;;;;;;5052070;28;20479;-58
2023/10/08 06:52:11;;;;;;;9.02;5.82;;;19.00;98.20;;;;;;5051672;28;20154;-57
2023/10/08 06:54:37;;;;;;;10.70;5.63;;;19.00;97.70;;;;;;5066297;28;20036;-58
2023/10/08 06:57:02;;;;;;;10.93;5.47;;;19.00;97.60;;;;;;5052189;28;20491;-58
2023/10/08 06:59:31;;;;;;;11.45;6.05;;;19.00;98.00;;;;;;5051243;28;20480;-60
2023/10/08 07:01:58;;;;;;;8.70;5.43;;;19.00;98.20;;;;;;5049856;28;20045;-62
2023/10/08 07:04:24;;;;;;;14.10;9.88;;;18.90;98.30;;;;;;5050287;28;20138;-63
2023/10/08 07:06:51;;;;;;;12.65;7.95;;;18.90;99.50;;;;;;5051998;28;20473;-57
2023/10/08 07:11:55;;;;;;;12.20;7.55;;;19.20;99.90;;;;;;5052739;28;20079;-61
2023/10/08 07:14:26;;;;;;;13.10;6.70;;;19.40;99.90;;;;;;5052464;28;20044;-61
2023/10/08 07:16:59;;;;;;;20.27;7.60;;;19.70;99.00;;;;;;5040352;28;20639;-59
2023/10/08 07:19:33;;;;;;;11.48;5.20;;;19.90;97.80;;;;;;5066400;28;20032;-63
2023/10/08 07:22:03;;;;;;;10.75;5.65;;;20.00;97.90;;;;;;5065703;28;20495;-58
2023/10/08 07:24:34;;;;;;;11.30;5.40;;;20.10;98.10;;;;;;5050064;28;20045;-59
2023/10/08 07:27:05;;;;;;;11.23;5.28;;;20.30;99.30;;;;;;5051779;28;20025;-61
2023/10/08 07:29:32;;;;;;;10.32;5.38;;;20.50;99.90;;;;;;5051676;28;20040;-63
2023/10/08 07:32:09;;;;;;;15.15;5.30;;;20.70;99.90;;;;;;5052081;28;20043;-59
2023/10/08 07:34:36;;;;;;;10.02;4.38;;;;;;;;;;5052008;28;20420;-58
2023/10/08 07:37:02;;;;;;;16.10;10.65;;;;;;;;;;5052385;28;20114;-63
2023/10/08 07:41:59;;;;;;;8.65;4.55;;;21.60;99.90;;;;;;5052199;28;20491;-56
2023/10/08 07:44:28;;;;;;;9.05;4.47;;;;;;;;;;5065617;28;20033;-62
2023/10/08 07:46:54;;;;;;;6.72;3.92;;;;;;;;;;5051327;28;20695;-60
2023/10/08 07:49:23;;;;;;;9.45;4.80;;;;;;;;;;5050630;28;20381;-64
2023/10/08 07:51:52;;;;;;;9.75;4.50;;;;;;;;;;5051353;28;20393;-65
2023/10/08 07:54:24;;;;;;;8.48;4.53;;;;;;;;;;5051306;28;20074;-61
2023/10/08 07:56:51;;;;;;;7.60;4.80;;;;;;;;;;5050627;28;20040;-61
2023/10/08 07:59:17;;;;;;;10.35;4.93;;;22.00;99.90;;;;;;5031320;28;20160;-63
2023/10/08 08:01:43;;;;;;;8.48;4.28;;;22.90;99.30;;;;;;5031365;28;20128;-65
2023/10/08 08:04:14;;;;;;;11.52;4.30;;;22.90;96.50;;;;;;5029453;28;20041;-59
2023/10/08 08:06:41;;;;;;;9.02;4.30;;;;;;;;;;5031735;28;20038;-60
2023/10/08 08:09:19;;;;;;;19.67;4.68;;;;;;;;;;5023304;28;20125;-67
2023/10/08 08:11:46;;;;;;;8.85;4.28;;;23.30;99.90;;;;;;5023878;28;20036;-64
2023/10/08 08:14:16;;;;;;;9.35;4.10;;;23.20;92.40;;;;;;5018574;28;20046;-62
2023/10/08 08:16:47;;;;;;;6.05;3.90;;;23.20;92.60;;;;;;5004901;28;20069;-68
2023/10/08 08:19:17;;;;;;;12.00;5.03;;;23.20;92.00;;;;;;5033000;28;20076;-68
2023/10/08 08:21:46;;;;;;;7.13;4.40;;;23.20;92.40;;;;;;5026803;28;20439;-64
2023/10/08 08:24:13;;;;;;;9.75;4.32;;;23.30;92.20;;;;;;5022027;28;20053;-66
2023/10/08 08:26:40;;;;;;;6.93;4.25;;;;;;;;;;5026065;28;20026;-67
2023/10/08 08:29:15;;;;;;;7.30;4.30;;;23.60;97.00;;;;;;5023734;28;20087;-65
2023/10/08 08:31:46;;;;;;;11.18;5.13;;;23.80;99.90;;;;;;5020870;28;20512;-64
2023/10/08 08:34:19;;;;;;;9.00;4.60;;;;;;;;;;5022030;28;20042;-62
2023/10/08 08:36:49;;;;;;;9.90;4.28;;;;;;;;;;5024614;28;20474;-62
2023/10/08 08:39:36;;;;;;;11.38;4.47;;;;;;;;;;5025405;28;20679;-66
2023/10/08 08:42:06;;;;;;;6.40;3.90;;;23.90;98.80;;;;;;5023791;28;20715;-63
2023/10/08 08:44:39;;;;;;;5.77;4.07;;;;;;;;;;5019511;28;20041;-63
2023/10/08 08:47:06;;;;;;;8.23;4.03;;;24.00;99.90;;;;;;5027568;28;20619;-63
2023/10/08 08:49:39;;;;;;;9.32;4.20;;;24.00;90.90;;;;;;5024599;28;20032;-65
2023/10/08 08:52:05;;;;;;;9.07;3.60;;;;;;;;;;5016422;28;20026;-63
2023/10/08 08:54:32;;;;;;;8.50;4.32;;;;;;;;;;5018263;28;20402;-61
2023/10/08 08:57:00;;;;;;;9.02;3.30;;;;;;;;;;5020735;28;20033;-60
2023/10/08 08:59:30;;;;;;;7.55;3.75;;;;;;;;;;5025518;28;20104;-61
2023/10/08 09:01:57;;;;;;;7.68;3.40;;;;;;;;;;5028034;28;20120;-58
2023/10/08 09:04:30;;;;;;;8.88;5.38;;;;;;;;;;5018820;28;20045;-61
2023/10/08 09:06:57;;;;;;;6.45;3.53;;;;;;;;;;5029883;28;20033;-66
2023/10/08 09:09:24;;;;;;;10.52;4.88;;;;;;;;;;5023435;28;20064;-63
2023/10/08 09:11:55;;;;;;;12.95;4.53;;;;;;;;;;5023209;28;20037;-62
2023/10/08 09:14:22;;;;;;;6.33;3.47;;;;;;;;;;5017709;28;20512;-59
2023/10/08 09:16:49;;;;;;;8.15;3.90;;;;;;;;;;5022542;28;20282;-63
2023/10/08 09:19:19;;;;;;;8.05;3.75;;;;;;;;;;5025829;28;20034;-62
2023/10/08 09:22:04;;;;;;;7.60;4.25;;;;;;;;;;5021544;28;20033;-61
2023/10/08 09:24:31;;;;;;;9.18;4.28;;;;;;;;;;5028636;28;20473;-59
2023/10/08 09:26:58;;;;;;;9.68;3.65;;;;;;;;;;5029270;28;20079;-62
2023/10/08 09:29:25;;;;;;;8.20;4.28;;;;;;;;;;5035453;28;20053;-63
2023/10/08 09:31:56;;;;;;;8.40;4.45;;;;;;;;;;5026810;28;20036;-63
2023/10/08 09:34:26;;;;;;;11.90;4.47;;;;;;;;;;5023633;28;20050;-60
2023/10/08 09:36:53;;;;;;;7.65;4.18;;;24.30;99.90;;;;;;5026327;28;20056;-58
2023/10/08 09:39:23;;;;;;;9.35;4.20;;;;;;;;;;5030391;28;20030;-55
2023/10/08 09:41:50;;;;;;;6.60;3.83;;;;;;;;;;5024518;28;20029;-60
2023/10/08 09:44:19;;;;;;;10.25;4.40;;;;;;;;;;5022915;28;20057;-56
2023/10/08 09:46:48;;;;;;;10.60;3.97;;;;;;;;;;5022996;28;20052;-59
2023/10/08 09:49:16;;;;;;;10.07;4.35;;;;;;;;;;5028594;28;20036;-58
2023/10/08 09:51:44;;;;;;;10.98;4.47;;;;;;;;;;5024398;28;20536;-59
2023/10/08 09:54:20;;;;;;;13.02;3.80;;;;;;;;;;5009024;28;20038;-59
2023/10/08 09:56:46;;;;;;;6.90;3.80;;;;;;;;;;5010427;28;20037;-57
2023/10/08 09:59:14;;;;;;;8.15;4.38;;;;;;;;;;5010577;28;20496;-57
2023/10/08 10:01:42;;;;;;;9.98;4.43;;;;;;;;;;5010058;28;20099;-59
2023/10/08 10:04:11;;;;;;;7.50;4.30;;;;;;;;;;5011081;28;20420;-59
2023/10/08 10:06:37;;;;;;;13.35;5.25;;;;;;;;;;5010178;28;20046;-57
2023/10/08 10:09:15;;;;;;;11.80;4.43;;;;;;;;;;5009823;28;20044;-59
2023/10/08 10:11:46;;;;;;;6.70;3.63;;;;;;;;;;5008545;28;20038;-58
2023/10/08 10:14:13;;;;;;;10.57;4.80;;;;;;;;;;5010766;28;20607;-59
2023/10/08 10:16:41;;;;;;;10.48;5.28;;;25.90;98.40;;;;;;5009528;28;20079;-59
2023/10/08 10:19:16;;;;;;;12.35;5.28;;;;;;;;;;5010093;28;20048;-58
2023/10/08 10:21:42;;;;;;;8.02;4.68;;;;;;;;;;5009523;28;20056;-58
2023/10/08 10:24:22;;;;;;;8.85;5.07;;;;;;;;;;5011176;28;20053;-60
2023/10/08 10:26:50;;;;;;;9.98;5.95;;;25.80;99.90;;;;;;5024578;28;20033;-55
2023/10/08 10:29:19;;;;;;;11.93;5.70;;;25.90;98.90;;;;;;5027670;28;20124;-60
2023/10/08 10:31:46;;;;;;;10.10;4.80;;;;;;;;;;5023742;28;20104;-57
2023/10/08 10:34:15;;;;;;;7.63;4.15;;;;;;;;;;5022415;28;20088;-57
2023/10/08 10:36:42;;;;;;;12.43;4.38;;;;;;;;;;5022535;28;20382;-60
2023/10/08 10:39:26;;;;;;;9.60;4.50;;;;;;;;;;5020901;28;20025;-58
2023/10/08 10:42:06;;;;;;;10.77;4.85;;;26.30;90.30;;;;;;5021536;28;20030;-57
2023/10/08 10:44:36;;;;;;;10.05;4.95;;;;;;;;;;5028733;28;20049;-57
2023/10/08 10:52:31;;;;;;;9.05;4.65;;;28.40;86.80;;;;;;5023513;28;20042;-59
2023/10/08 10:55:17;;;;;;;10.05;5.05;;;;;;;;;;5029700;28;20547;-56
2023/10/08 10:57:53;;;;;;;11.68;4.65;;;;;;;;;;5026109;28;20041;-56
2023/10/08 11:03:48;;;;;;;7.95;4.90;;;;;;;;;;5004222;28;20135;-62
2023/10/08 11:05:51;;;;;;;8.73;4.25;;;;;;;;;;5024025;28;20044;-59
2023/10/08 11:08:18;;;;;;;12.23;4.18;;;30.20;86.40;;;;;;5027677;28;20032;-60
2023/10/08 11:10:58;;;;;;;8.10;4.20;;;;;;;;;;5027059;28;20034;-61
2023/10/08 11:13:37;;;;;;;13.57;4.47;;;30.50;85.30;;;;;;5018841;28;20030;-64
2023/10/08 11:16:05;;;;;;;8.63;4.43;;;30.40;90.40;;;;;;5023982;28;20034;-64
2023/10/08 11:18:32;;;;;;;10.30;4.20;;;;;;;;;;4995368;28;20049;-59
2023/10/08 11:21:22;;;;;;;7.97;4.60;;;;;;;;;;5022001;28;20485;-59
2023/10/08 11:23:53;;;;;;;12.75;4.93;;;;;;;;;;5021561;28;20481;-60
2023/10/08 11:26:19;;;;;;;7.55;4.68;;;;;;;;;;5025458;28;20026;-60
2023/10/08 11:28:49;;;;;;;9.65;4.68;;;;;;;;;;5022425;28;20067;-59
2023/10/08 11:31:21;;;;;;;12.25;4.68;;;29.30;99.90;;;;;;5025598;28;20053;-62
2023/10/08 11:33:56;;;;;;;12.00;4.53;;;29.20;89.60;;;;;;5027000;28;20179;-60
2023/10/08 11:36:29;;;;;;;15.02;4.13;;;29.00;87.60;;;;;;5020603;28;20042;-61
2023/10/08 11:39:06;;;;;;;7.63;4.30;;;28.60;87.60;;;;;;5022874;28;20420;-62
2023/10/08 11:41:44;;;;;;;9.48;4.50;;;28.50;87.70;;;;;;5024713;28;20038;-58
2023/10/08 11:44:13;;;;;;;8.05;4.90;;;;;;;;;;5035913;28;20523;-58
2023/10/08 11:46:39;;;;;;;8.40;4.93;;;28.30;88.10;;;;;;5023335;28;20030;-58
2023/10/08 11:49:05;;;;;;;11.82;5.28;;;28.30;88.20;;;;;;5019076;28;20057;-60
2023/10/08 11:51:32;;;;;;;11.40;5.25;;;28.20;88.50;;;;;;5022943;28;20104;-62
2023/10/08 11:54:00;;;;;;;13.85;5.53;;;;;;;;;;5025186;28;20037;-60
2023/10/08 11:56:26;;;;;;;13.40;6.68;;;;;;;;;;5018331;28;20037;-58
2023/10/08 11:58:52;;;;;;;9.27;5.30;;;;;;;;;;5017925;28;20550;-61
2023/10/08 12:01:18;;;;;;;12.23;5.10;;;;;;;;;;5038028;28;20054;-58
2023/10/08 12:03:49;;;;;;;11.82;4.45;;;27.50;87.90;;;;;;5022930;28;20066;-58
2023/10/08 12:06:18;;;;;;;12.27;5.43;;;27.40;88.90;;;;;;5015089;28;20041;-59
2023/10/08 12:08:45;;;;;;;11.88;4.30;;;27.50;97.70;;;;;;5027858;28;20282;-62
2023/10/08 12:11:12;;;;;;;8.52;4.03;;;27.50;95.80;;;;;;5018717;28;20034;-60
2023/10/08 12:13:43;;;;;;;8.88;4.45;;;27.30;88.90;;;;;;5022094;28;20052;-61
2023/10/08 12:16:12;;;;;;;9.52;5.00;;;27.30;91.70;;;;;;5024557;28;20067;-60
2023/10/08 12:18:43;;;;;;;9.73;3.85;;;27.30;94.30;;;;;;5025166;28;20537;-61
2023/10/08 12:21:15;;;;;;;14.80;7.30;;;27.20;99.90;;;;;;5021450;28;20041;-59
2023/10/08 12:23:43;;;;;;;13.90;5.25;;;27.00;89.90;;;;;;5022985;28;20038;-59
2023/10/08 12:26:09;;;;;;;18.33;5.63;;;27.00;99.90;;;;;;5015717;28;20033;-60
2023/10/08 12:28:36;;;;;;;17.20;5.70;;;26.80;99.90;;;;;;5024701;28;20129;-59
2023/10/08 12:31:05;;;;;;;14.25;3.72;;;26.70;91.20;;;;;;5022505;28;20793;-59
2023/10/08 12:33:31;;;;;;;9.77;3.70;;;26.60;90.10;;;;;;4992391;28;20441;-58
2023/10/08 12:35:57;;;;;;;7.07;4.07;;;26.50;90.20;;;;;;5026279;28;20536;-61
2023/10/08 12:38:31;;;;;;;8.80;4.03;;;26.40;90.20;;;;;;5029076;28;20109;-59
2023/10/08 12:40:59;;;;;;;11.77;4.07;;;26.20;90.40;;;;;;5030374;28;20044;-57
2023/10/08 12:43:28;;;;;;;9.43;4.25;;;26.30;90.90;;;;;;5039348;28;20099;-56
2023/10/08 12:45:56;;;;;;;12.35;4.43;;;26.20;90.40;;;;;;5024065;28;20483;-57
2023/10/08 12:48:24;;;;;;;12.38;4.50;;;26.30;90.70;;;;;;5040392;28;20067;-58
2023/10/08 12:50:53;;;;;;;12.70;4.20;;;26.30;90.80;;;;;;5040660;28;20069;-58
2023/10/08 12:53:39;;;;;;;9.35;3.95;;;26.30;91.20;;;;;;5046391;28;20053;-60
2023/10/08 12:56:05;;;;;;;7.43;3.55;;;26.40;90.90;;;;;;5045223;28;20033;-57
2023/10/08 12:58:41;;;;;;;13.45;3.80;;;26.20;90.80;;;;;;5040525;28;20452;-59
2023/10/08 13:01:11;;;;;;;8.57;3.67;;;26.20;90.90;;;;;;5041465;28;20111;-60
2023/10/08 13:03:47;;;;;;;14.95;3.78;;;26.10;91.00;;;;;;5010601;28;20526;-58
2023/10/08 13:06:28;;;;;;;8.75;3.40;;;26.00;91.10;;;;;;5042293;28;20072;-60
2023/10/08 13:08:58;;;;;;;10.07;4.13;;;26.00;91.20;;;;;;5046007;28;20041;-59
2023/10/08 13:11:26;;;;;;;7.10;3.28;;;26.00;91.50;;;;;;5007516;28;20045;-57
2023/10/08 13:13:57;;;;;;;6.53;3.63;;;26.00;91.40;;;;;;5040577;28;20132;-61
2023/10/08 13:16:25;;;;;;;11.48;3.83;;;25.90;91.30;;;;;;5026102;28;20475;-59
2023/10/08 13:18:52;;;;;;;9.05;4.15;;;25.90;91.60;;;;;;5034077;28;20400;-58
2023/10/08 13:21:24;;;;;;;10.00;3.45;;;25.90;91.60;;;;;;5027370;28;20378;-60
2023/10/08 13:23:53;;;;;;;8.45;3.35;;;25.90;91.60;;;;;;5025733;28;20045;-58
2023/10/08 13:26:22;;;;;;;13.05;3.63;;;25.90;91.80;;;;;;5039342;28;20404;-59
2023/10/08 13:28:48;;;;;;;11.70;4.10;;;25.90;91.80;;;;;;5025290;28;20689;-56
2023/10/08 13:31:16;;;;;;;8.27;3.28;;;26.00;91.70;;;;;;5029571;28;20121;-59
2023/10/08 13:33:44;;;;;;;9.25;3.95;;;26.00;91.90;;;;;;5025032;28;20386;-57
2023/10/08 13:36:13;;;;;;;9.98;4.30;;;26.20;92.10;;;;;;5023824;28;20034;-57
2023/10/08 13:38:40;;;;;;;7.22;3.50;;;26.30;91.90;;;;;;5019403;28;20038;-59
2023/10/08 13:41:18;;;;;;;13.43;5.00;;;26.70;92.00;;;;;;5021371;28;20025;-60
2023/10/08 13:43:45;;;;;;;9.23;3.53;;;27.00;92.20;;;;;;5023406;28;20053;-57
2023/10/08 13:46:14;;;;;;;11.50;4.43;;;;;;;;;;5029191;28;20052;-56
2023/10/08 13:48:42;;;;;;;7.00;3.40;;;;;;;;;;5011319;28;20084;-61
2023/10/08 13:51:13;;;;;;;15.38;5.13;;;27.40;99.90;;;;;;5037986;28;20041;-62
2023/10/08 13:53:40;;;;;;;;;;;27.30;99.90;;;;;;5025928;28;20037;-59
2023/10/08 13:56:06;;;;;;;16.80;4.15;;;27.20;99.90;;;;;;5032385;28;20325;-58
2023/10/08 13:58:35;;;;;;;14.63;4.20;;;27.10;99.10;;;;;;5027144;28;20499;-58
2023/10/08 14:01:03;;;;;;;12.95;4.75;;;27.00;98.20;;;;;;5024983;28;20037;-58
2023/10/08 14:03:32;;;;;;;11.82;4.35;;;26.90;96.70;;;;;;5042833;28;20392;-58
2023/10/08 14:06:03;;;;;;;10.80;4.13;;;26.70;91.80;;;;;;5046816;28;20044;-56
2023/10/08 14:08:31;;;;;;;10.32;4.05;;;26.70;92.10;;;;;;5039322;28;20045;-57
2023/10/08 14:11:02;;;;;;;14.75;5.68;;;26.70;92.30;;;;;;5012794;28;20502;-56
2023/10/08 14:13:32;;;;;;;15.25;5.90;;;26.70;92.40;;;;;;5040593;28;20045;-59
2023/10/08 14:16:08;;;;;;;13.52;6.55;;;26.70;92.50;;;;;;5029717;28;20061;-57
2023/10/08 14:18:40;;;;;;;12.27;4.60;;;26.60;92.20;;;;;;5035088;28;20047;-58
2023/10/08 14:21:12;;;;;;;14.20;5.75;;;26.30;91.90;;;;;;5031938;28;20065;-58
2023/10/08 14:23:39;;;;;;;16.05;6.97;;;26.60;92.00;;;;;;5043157;28;20043;-55
2023/10/08 14:26:08;;;;;;;13.88;5.18;;;26.70;91.90;;;;;;5036639;28;20404;-57